Time;durP1;ratioP1;P1;durP2;ratioP2;P2;SDS_P1;SDS_P2;PMS_P1;PMS_P2;Temp;Humidity;BMP_temperature;BMP_pressure;BME280_temperature;BME280_humidity;BME280_pressure;Samples;Min_cycle;Max_cycle;Signal;HPM_P1;HPM_P2
2022/06/26 00:00:07;;;;;;;13.63;9.13;;;;;;;21.53;70.02;100994.34;4965824;28;20026;-71
2022/06/26 00:02:33;;;;;;;13.07;8.63;;;;;;;21.50;70.18;100989.28;4968278;28;20037;-73
2022/06/26 00:04:58;;;;;;;16.17;8.98;;;;;;;21.52;69.78;100987.16;4963749;28;20101;-72
2022/06/26 00:07:24;;;;;;;15.70;8.80;;;;;;;21.41;70.07;100991.50;4968032;28;20021;-72
2022/06/26 00:09:50;;;;;;;12.55;8.93;;;;;;;21.43;70.37;100988.50;4978773;28;20026;-72
2022/06/26 00:12:16;;;;;;;9.90;7.85;;;;;;;21.40;70.45;100989.81;4964629;28;20034;-71
2022/06/26 00:14:42;;;;;;;14.02;8.55;;;;;;;21.46;69.94;100999.09;4962987;28;20018;-74
2022/06/26 00:17:07;;;;;;;12.77;8.10;;;;;;;21.45;70.08;100992.72;4984480;28;20026;-72
2022/06/26 00:19:33;;;;;;;16.10;9.25;;;;;;;21.50;69.80;100994.78;4981250;28;20022;-70
2022/06/26 00:21:58;;;;;;;12.98;9.30;;;;;;;21.36;69.86;100994.94;4970915;28;20030;-71
2022/06/26 00:24:24;;;;;;;11.88;9.45;;;;;;;21.19;70.69;100999.31;4980493;28;20051;-72
2022/06/26 00:26:49;;;;;;;14.93;9.18;;;;;;;21.18;71.11;100997.59;4962460;28;20038;-71
2022/06/26 00:29:15;;;;;;;11.55;8.75;;;;;;;21.26;70.82;100994.59;4951309;28;20018;-72
2022/06/26 00:31:40;;;;;;;9.90;8.23;;;;;;;21.26;70.70;100991.84;4981642;28;20023;-72
2022/06/26 00:34:05;;;;;;;24.10;9.75;;;;;;;21.33;70.52;100989.88;4958524;28;20110;-72
2022/06/26 00:36:31;;;;;;;11.77;8.98;;;;;;;21.32;70.51;100981.81;4954129;28;20050;-70
2022/06/26 00:38:56;;;;;;;11.82;8.98;;;;;;;21.33;70.67;100989.88;4978828;28;20090;-72
2022/06/26 00:41:22;;;;;;;11.48;9.05;;;;;;;21.17;70.86;100978.56;4971518;28;20026;-71
2022/06/26 00:43:47;;;;;;;15.60;8.70;;;;;;;21.24;70.32;100980.19;4963889;28;20041;-72
2022/06/26 00:46:14;;;;;;;10.75;8.82;;;;;;;21.20;70.63;100978.13;4950943;28;20023;-73
2022/06/26 00:48:39;;;;;;;14.63;9.75;;;;;;;21.16;71.16;100983.22;4968162;28;20081;-73
2022/06/26 00:51:05;;;;;;;12.55;8.55;;;;;;;21.17;70.66;100979.41;4979740;28;20129;-69
2022/06/26 00:53:31;;;;;;;16.40;8.98;;;;;;;21.23;70.52;100984.00;4965598;28;20034;-71
2022/06/26 00:55:57;;;;;;;13.10;8.52;;;;;;;21.20;70.80;100978.97;4977933;28;20034;-72
2022/06/26 00:58:22;;;;;;;12.57;9.23;;;;;;;21.22;70.85;100971.31;4969571;28;20029;-72
2022/06/26 01:00:48;;;;;;;12.02;9.10;;;;;;;21.08;71.42;100967.00;4984212;28;20026;-69
2022/06/26 01:03:13;;;;;;;11.82;9.32;;;;;;;21.13;71.24;100969.94;4971814;28;20018;-76
2022/06/26 01:05:39;;;;;;;16.10;8.40;;;;;;;21.06;71.21;100966.34;4975344;28;20026;-72
2022/06/26 01:08:06;;;;;;;13.25;9.25;;;;;;;21.12;71.23;100970.97;4976020;28;20026;-71
2022/06/26 01:10:32;;;;;;;17.02;8.57;;;;;;;21.09;71.12;100965.91;4968066;28;20038;-72
2022/06/26 01:13:00;;;;;;;14.77;8.75;;;;;;;21.19;70.91;100971.78;4966098;28;20022;-70
2022/06/26 01:15:26;;;;;;;10.60;8.60;;;;;;;21.15;71.48;100965.03;4977525;28;20023;-72
2022/06/26 01:17:52;;;;;;;10.05;8.02;;;;;;;21.38;69.84;100970.75;4970278;28;20026;-73
2022/06/26 01:20:17;;;;;;;14.75;9.25;;;;;;;21.37;70.20;100962.72;4966921;28;20029;-71
2022/06/26 01:22:43;;;;;;;15.60;8.85;;;;;;;21.39;70.21;100971.63;4981642;28;20041;-72
2022/06/26 01:25:08;;;;;;;14.27;9.07;;;;;;;21.53;69.03;100977.84;4971996;28;20113;-72
2022/06/26 01:27:43;;;;;;;12.00;8.77;;;;;;;21.40;70.15;100984.31;4970791;28;20022;-72
2022/06/26 01:30:10;;;;;;;9.68;8.13;;;;;;;21.53;69.47;100972.31;4970502;28;20046;-72
2022/06/26 01:32:35;;;;;;;11.07;8.40;;;;;;;21.43;69.90;100978.34;4968146;28;20026;-72
2022/06/26 01:35:01;;;;;;;13.88;9.40;;;;;;;21.36;69.98;100975.66;4978155;28;20087;-71
2022/06/26 01:37:27;;;;;;;9.50;8.23;;;;;;;21.47;69.49;100978.75;4969807;28;20442;-73
2022/06/26 01:39:52;;;;;;;16.02;9.07;;;;;;;21.52;69.32;100987.16;4985777;28;20053;-72
2022/06/26 01:42:18;;;;;;;12.00;8.68;;;;;;;21.47;69.02;100981.50;4979406;28;20053;-71
2022/06/26 01:44:43;;;;;;;15.82;9.82;;;;;;;21.58;68.96;100981.59;4967370;28;20025;-71
2022/06/26 01:47:09;;;;;;;9.98;8.63;;;;;;;21.57;69.32;100979.03;4977728;28;20038;-70
2022/06/26 01:49:34;;;;;;;9.32;8.40;;;;;;;21.49;69.28;100984.84;4985073;28;20412;-72
2022/06/26 01:51:59;;;;;;;11.98;8.98;;;;;;;21.32;69.64;100988.22;4981355;28;20080;-72
2022/06/26 01:54:25;;;;;;;13.32;9.02;;;;;;;21.17;70.26;100987.66;4973325;28;20180;-72
2022/06/26 01:56:51;;;;;;;10.90;9.30;;;;;;;21.17;70.72;100990.41;4967640;28;20033;-72
2022/06/26 01:59:16;;;;;;;14.45;8.55;;;;;;;21.15;70.80;100987.06;4988340;28;20065;-70
2022/06/26 02:01:41;;;;;;;12.38;9.13;;;;;;;21.25;69.92;100981.84;4960367;28;20022;-71
2022/06/26 02:04:07;;;;;;;16.05;9.35;;;;;;;21.26;70.19;100989.06;4971925;28;20062;-72
2022/06/26 02:06:32;;;;;;;13.75;9.48;;;;;;;21.35;69.96;100992.41;4987991;28;20057;-72
2022/06/26 02:08:57;;;;;;;11.93;9.38;;;;;;;21.22;70.14;100993.34;4966141;28;20030;-72
2022/06/26 02:14:09;;;;;;;14.05;9.85;;;;;;;21.33;69.40;100989.88;4986237;28;20040;-70
2022/06/26 02:16:34;;;;;;;10.50;8.27;;;;;;;21.23;70.08;100986.75;4980870;28;20023;-71
2022/06/26 02:19:00;;;;;;;14.80;9.23;;;;;;;21.33;69.26;100987.13;4952074;28;20031;-73
2022/06/26 02:21:28;;;;;;;11.65;9.10;;;;;;;21.46;69.35;100977.06;4994478;23;20069;-71
2022/06/26 02:23:56;;;;;;;18.90;9.02;;;;;;;21.38;69.53;100976.25;4990911;28;20034;-72
2022/06/26 02:26:22;;;;;;;16.15;8.32;;;;;;;21.30;70.36;100979.31;4974593;28;20018;-70
2022/06/26 02:28:49;;;;;;;11.15;9.35;;;;;;;21.30;70.06;100990.31;4979734;28;20125;-70
2022/06/26 02:31:14;;;;;;;11.77;9.27;;;;;;;21.17;71.03;100990.41;4979068;28;20022;-73
2022/06/26 02:33:40;;;;;;;11.13;9.60;;;;;;;21.30;70.33;100983.97;4986400;28;20118;-74
2022/06/26 02:36:07;;;;;;;10.13;9.13;;;;;;;21.35;69.77;100987.75;5008381;28;20483;-71
2022/06/26 02:38:33;;;;;;;13.75;9.82;;;;;;;21.16;70.78;100988.72;4992049;28;20104;-71
2022/06/26 02:40:59;;;;;;;10.77;8.60;;;;;;;21.14;70.74;100990.88;4981935;28;20022;-71
2022/06/26 02:43:24;;;;;;;11.38;8.75;;;;;;;21.10;70.89;100995.97;4992703;28;20121;-69
2022/06/26 02:45:52;;;;;;;11.57;9.10;;;;;;;21.09;70.67;100994.28;4985215;28;20022;-70
2022/06/26 02:48:19;;;;;;;12.52;9.25;;;;;;;21.13;70.89;100994.72;4984314;28;20022;-72
2022/06/26 02:50:44;;;;;;;11.57;9.93;;;;;;;20.93;71.72;100996.75;5004584;28;20021;-74
2022/06/26 02:53:10;;;;;;;11.35;9.10;;;;;;;20.91;71.58;100993.38;4982242;28;20029;-73
2022/06/26 02:55:36;;;;;;;12.13;9.77;;;;;;;20.98;71.62;100991.41;4992576;28;20026;-74
2022/06/26 02:58:03;;;;;;;14.82;9.50;;;;;;;20.97;71.66;100989.75;4989736;28;20059;-73
2022/06/26 03:00:28;;;;;;;15.50;10.02;;;;;;;20.98;71.29;100992.25;5011293;28;20090;-72
2022/06/26 03:02:53;;;;;;;10.82;9.63;;;;;;;21.11;70.49;100986.66;4973690;28;20129;-72
2022/06/26 03:05:19;;;;;;;13.00;11.00;;;;;;;21.10;70.85;100989.63;5005006;28;20046;-70
2022/06/26 03:07:45;;;;;;;12.30;9.90;;;;;;;21.02;71.42;100984.41;4991577;28;20045;-71
2022/06/26 03:10:10;;;;;;;13.13;10.18;;;;;;;21.00;70.81;100997.56;4984291;28;20053;-71
2022/06/26 03:12:46;;;;;;;14.90;10.27;;;;;;;21.07;70.66;100985.44;4986062;28;20112;-71
2022/06/26 03:15:12;;;;;;;14.20;10.00;;;;;;;21.00;70.83;100994.81;5008953;28;20018;-71
2022/06/26 03:17:38;;;;;;;13.93;10.75;;;;;;;20.99;71.05;100998.59;4977590;28;20019;-71
2022/06/26 03:20:09;;;;;;;14.43;10.45;;;;;;;20.98;71.07;100996.94;4988097;28;20034;-71
2022/06/26 03:22:34;;;;;;;13.32;11.00;;;;;;;21.01;70.92;101002.00;4999174;28;20018;-71
2022/06/26 03:25:00;;;;;;;12.10;9.73;;;;;;;20.96;70.80;101005.41;4987212;28;20037;-70
2022/06/26 03:27:25;;;;;;;12.27;10.60;;;;;;;20.90;71.40;100999.97;5009444;28;20052;-69
2022/06/26 03:29:50;;;;;;;13.13;10.43;;;;;;;20.82;71.73;101004.69;5006738;28;20128;-71
2022/06/26 03:32:16;;;;;;;15.85;11.00;;;;;;;20.83;71.84;101009.09;4981270;28;20022;-71
2022/06/26 03:34:41;;;;;;;12.70;10.65;;;;;;;20.86;71.41;101005.94;4980117;28;20049;-71
2022/06/26 03:37:06;;;;;;;12.30;10.05;;;;;;;20.86;71.32;101000.41;4998310;28;20030;-71
2022/06/26 03:39:32;;;;;;;15.68;11.65;;;;;;;20.94;70.99;101001.22;4977229;28;20019;-72
2022/06/26 03:41:58;;;;;;;13.60;11.50;;;;;;;20.83;71.83;101011.84;4991473;28;20052;-71
2022/06/26 03:44:30;;;;;;;16.52;11.40;;;;;;;20.64;72.43;101006.50;4988561;28;20058;-73
2022/06/26 03:46:56;;;;;;;15.80;12.05;;;;;;;20.51;73.35;101001.91;4982788;28;20026;-71
2022/06/26 03:49:23;;;;;;;16.23;11.98;;;;;;;20.47;73.73;101006.16;4980893;28;20025;-72
2022/06/26 03:51:54;;;;;;;11.68;10.43;;;;;;;20.61;72.59;101004.19;4983974;28;20125;-73
2022/06/26 03:54:21;;;;;;;13.55;11.32;;;;;;;20.68;72.80;101010.50;4977955;28;20026;-73
2022/06/26 03:56:47;;;;;;;13.82;12.43;;;;;;;20.60;72.99;101011.56;4998805;28;20136;-74
2022/06/26 03:59:13;;;;;;;14.70;11.48;;;;;;;20.59;73.12;101015.41;4981572;28;20134;-70
2022/06/26 04:01:39;;;;;;;12.73;11.13;;;;;;;20.70;72.53;101016.63;4984079;28;20018;-70
2022/06/26 04:04:05;;;;;;;18.33;12.82;;;;;;;20.73;72.50;101017.00;4989813;28;20021;-73
2022/06/26 04:06:30;;;;;;;18.80;12.93;;;;;;;20.80;72.33;101017.81;4983556;28;20029;-73
2022/06/26 04:08:55;;;;;;;14.25;12.43;;;;;;;20.83;72.47;101011.84;5003019;28;20022;-73
2022/06/26 04:11:21;;;;;;;12.98;10.85;;;;;;;20.86;72.04;101008.69;4989176;28;20046;-72
2022/06/26 04:13:49;;;;;;;14.07;11.38;;;;;;;20.92;71.77;101008.81;5005802;28;20026;-71
2022/06/26 04:16:15;;;;;;;19.13;11.60;;;;;;;20.82;72.70;101010.19;4982508;28;20021;-73
2022/06/26 04:18:40;;;;;;;16.52;13.38;;;;;;;20.73;73.18;101011.50;5006261;28;20101;-70
2022/06/26 04:21:05;;;;;;;16.95;13.00;;;;;;;20.93;72.62;101016.00;5006917;28;20126;-68
2022/06/26 04:23:31;;;;;;;17.73;12.00;;;;;;;20.95;72.37;101002.91;5002929;28;20021;-73
2022/06/26 04:25:56;;;;;;;17.15;13.00;;;;;;;21.04;72.15;101001.53;5004195;28;20088;-73
2022/06/26 04:28:21;;;;;;;14.20;11.85;;;;;;;20.96;72.40;101010.91;4986246;28;20018;-71
2022/06/26 04:30:47;;;;;;;17.25;12.45;;;;;;;21.06;72.24;101002.16;4980719;28;20025;-70
2022/06/26 04:33:12;;;;;;;17.98;12.95;;;;;;;20.98;72.35;101003.28;4982286;28;20026;-70
2022/06/26 04:35:37;;;;;;;14.13;10.85;;;;;;;21.08;71.71;101005.53;4981378;28;20014;-73
2022/06/26 04:38:03;;;;;;;14.00;12.52;;;;;;;20.86;72.72;101011.44;5004287;28;20025;-72
2022/06/26 04:40:29;;;;;;;19.95;12.00;;;;;;;21.08;72.04;100997.28;4983697;28;20011;-73
2022/06/26 04:42:55;;;;;;;17.23;12.25;;;;;;;21.04;72.36;100996.03;5006299;28;20022;-73
2022/06/26 04:45:21;;;;;;;14.60;10.68;;;;;;;21.29;71.22;101010.69;4987247;28;20022;-70
2022/06/26 04:47:46;;;;;;;14.00;11.15;;;;;;;21.30;71.12;101001.34;4982634;28;20033;-74
2022/06/26 04:50:12;;;;;;;15.93;11.43;;;;;;;21.40;70.89;101006.34;4986920;28;20476;-73
2022/06/26 04:52:37;;;;;;;13.02;11.57;;;;;;;21.21;71.77;100996.31;4984250;28;20031;-72
2022/06/26 04:55:03;;;;;;;14.55;10.57;;;;;;;21.35;71.12;101004.28;4988778;28;20030;-73
2022/06/26 04:57:28;;;;;;;13.05;10.70;;;;;;;21.45;71.00;101013.91;4979813;28;20014;-70
2022/06/26 04:59:53;;;;;;;15.95;11.32;;;;;;;21.24;71.35;101007.72;4980713;28;20021;-73
2022/06/26 05:02:19;;;;;;;16.70;10.30;;;;;;;21.39;70.59;101021.19;4987315;28;20116;-73
2022/06/26 05:04:44;;;;;;;18.08;9.75;;;;;;;21.66;69.46;101016.25;4978987;28;20041;-73
2022/06/26 05:07:10;;;;;;;11.50;9.88;;;;;;;21.89;68.73;101027.44;4981082;28;20033;-73
2022/06/26 05:09:35;;;;;;;12.35;9.95;;;;;;;22.00;68.33;101016.75;4979809;28;20074;-71
2022/06/26 05:12:01;;;;;;;14.63;10.32;;;;;;;21.83;68.70;101022.84;4986918;28;20030;-73
2022/06/26 05:14:26;;;;;;;16.27;11.10;;;;;;;22.13;68.26;101024.88;4981319;28;20018;-72
2022/06/26 05:16:54;;;;;;;14.30;10.82;;;;;;;22.10;68.37;101028.09;5000573;28;20174;-73
2022/06/26 05:19:20;;;;;;;12.32;9.80;;;;;;;21.99;68.47;101037.94;5006620;28;20014;-73
2022/06/26 05:21:45;;;;;;;16.48;10.05;;;;;;;21.92;68.93;101032.50;4984805;28;20087;-69
2022/06/26 05:24:10;;;;;;;12.93;9.43;;;;;;;22.25;68.09;101031.31;4984534;28;20018;-74
2022/06/26 05:26:36;;;;;;;13.98;9.50;;;;;;;22.19;67.91;101032.22;5000426;28;20026;-74
2022/06/26 05:29:02;;;;;;;14.60;8.55;;;;;;;22.16;68.20;101032.69;5000409;28;20017;-74
2022/06/26 05:31:27;;;;;;;12.65;8.07;;;;;;;22.33;67.08;101033.75;4983535;28;20052;-74
2022/06/26 05:33:53;;;;;;;13.07;8.95;;;;;;;22.52;66.23;101030.97;4975719;28;20026;-73
2022/06/26 05:36:19;;;;;;;12.43;7.90;;;;;;;22.36;66.66;101018.63;4986489;28;20582;-74
2022/06/26 05:38:44;;;;;;;11.05;8.13;;;;;;;22.38;66.40;101024.78;4980401;28;20022;-74
2022/06/26 05:41:10;;;;;;;14.38;8.55;;;;;;;22.42;65.72;101024.06;4982384;28;20045;-73
2022/06/26 05:43:35;;;;;;;10.65;8.15;;;;;;;22.68;65.46;101022.00;4986879;28;20034;-75
2022/06/26 05:46:01;;;;;;;9.38;7.20;;;;;;;22.77;64.66;101015.09;4980992;28;20026;-73
2022/06/26 05:48:26;;;;;;;10.07;7.15;;;;;;;22.77;64.90;101023.38;4985943;28;20463;-75
2022/06/26 05:50:53;;;;;;;11.88;6.90;;;;;;;23.35;63.12;101025.44;4999958;28;20041;-74
2022/06/26 05:53:19;;;;;;;10.75;6.70;;;;;;;23.65;62.54;101024.50;4983340;28;20021;-71
2022/06/26 05:55:45;;;;;;;10.10;7.53;;;;;;;23.58;62.38;101026.53;4985820;28;20053;-73
2022/06/26 05:58:11;;;;;;;9.38;5.93;;;;;;;23.81;61.34;101021.03;4988077;28;20038;-73
2022/06/26 06:00:38;;;;;;;9.43;6.78;;;;;;;24.34;59.74;101033.81;4985804;28;20014;-73
2022/06/26 06:03:04;;;;;;;9.82;6.75;;;;;;;24.40;60.07;101027.28;4988633;28;20022;-73
2022/06/26 06:05:30;;;;;;;13.02;7.40;;;;;;;24.09;60.16;101032.16;4986987;28;20024;-72
2022/06/26 06:07:55;;;;;;;7.95;6.18;;;;;;;24.07;59.55;101027.97;5000238;28;20022;-73
2022/06/26 06:10:22;;;;;;;6.25;5.72;;;;;;;24.32;58.80;101030.38;4986940;28;20021;-70
2022/06/26 06:12:49;;;;;;;6.63;5.88;;;;;;;24.76;57.38;101039.03;4985339;28;20036;-71
2022/06/26 06:15:15;;;;;;;10.02;6.53;;;;;;;24.63;57.75;101029.94;4992634;28;20018;-71
2022/06/26 06:17:40;;;;;;;11.55;6.10;;;;;;;24.71;57.95;101028.69;4980174;28;20026;-73
2022/06/26 06:20:20;;;;;;;13.38;6.15;;;;;;;24.79;57.15;101030.25;4980014;28;20026;-73
2022/06/26 06:22:54;;;;;;;13.10;5.68;;;;;;;24.77;57.34;101037.94;4990552;28;20080;-71
2022/06/26 06:25:22;;;;;;;11.18;5.68;;;;;;;24.79;57.70;101041.31;4983879;28;20085;-73
2022/06/26 06:27:48;;;;;;;8.82;5.70;;;;;;;24.54;57.53;101045.28;4982412;28;20019;-73
2022/06/26 06:30:15;;;;;;;9.32;5.88;;;;;;;24.61;57.61;101047.91;4976448;28;20022;-70
2022/06/26 06:32:41;;;;;;;7.05;5.50;;;;;;;24.67;57.47;101048.84;4989879;28;20021;-73
2022/06/26 06:35:13;;;;;;;5.65;4.85;;;;;;;24.70;57.77;101049.19;4977060;28;20026;-73
2022/06/26 06:37:39;;;;;;;8.63;5.85;;;;;;;24.68;57.72;101050.53;5002871;28;20053;-71
2022/06/26 06:40:05;;;;;;;6.20;5.50;;;;;;;24.85;56.77;101054.19;4984787;28;20077;-73
2022/06/26 06:42:30;;;;;;;11.77;5.75;;;;;;;24.61;57.02;101051.50;5007519;28;20021;-74
2022/06/26 06:44:56;;;;;;;7.30;5.10;;;;;;;24.25;56.76;101058.19;5004764;28;20029;-73
2022/06/26 06:47:21;;;;;;;7.03;4.97;;;;;;;24.32;56.66;101058.06;4982250;28;20018;-74
2022/06/26 06:49:46;;;;;;;9.60;5.20;;;;;;;24.59;56.74;101059.22;4989181;28;20018;-72
2022/06/26 06:52:12;;;;;;;8.45;5.38;;;;;;;24.67;56.88;101054.38;4989625;28;20037;-73
2022/06/26 06:54:38;;;;;;;6.75;5.22;;;;;;;24.69;57.10;101057.75;4992264;28;20040;-74
2022/06/26 06:57:03;;;;;;;9.27;5.60;;;;;;;24.80;56.74;101059.63;4981540;28;20108;-73
2022/06/26 06:59:29;;;;;;;7.97;5.15;;;;;;;25.00;56.50;101065.53;4991129;28;20014;-74
2022/06/26 07:01:54;;;;;;;11.27;5.65;;;;;;;25.14;56.32;101066.94;4987222;28;20419;-73
2022/06/26 07:04:20;;;;;;;8.35;6.07;;;;;;;25.23;55.38;101059.03;4990467;28;20018;-74
2022/06/26 07:06:45;;;;;;;6.90;5.05;;;;;;;25.30;54.48;101064.41;4989478;28;20088;-74
2022/06/26 07:09:12;;;;;;;9.45;4.90;;;;;;;25.17;53.14;101060.91;4984828;28;20061;-74
2022/06/26 07:11:38;;;;;;;6.18;4.57;;;;;;;24.95;53.28;101075.69;4981804;28;20030;-74
2022/06/26 07:14:03;;;;;;;6.70;4.82;;;;;;;24.85;54.95;101070.81;4982430;28;20026;-73
2022/06/26 07:16:29;;;;;;;10.40;4.90;;;;;;;25.40;54.22;101064.59;5006075;28;20022;-76
2022/06/26 07:18:54;;;;;;;11.63;4.97;;;;;;;25.45;53.84;101067.47;4999285;28;20034;-73
2022/06/26 07:21:20;;;;;;;14.13;5.10;;;;;;;25.69;53.20;101066.19;4984644;28;20024;-71
2022/06/26 07:23:45;;;;;;;5.13;4.30;;;;;;;25.80;51.19;101069.13;5000069;28;20098;-75
2022/06/26 07:26:11;;;;;;;5.60;3.30;;;;;;;25.92;50.05;101072.63;5007142;28;20045;-73
2022/06/26 07:28:36;;;;;;;6.38;3.95;;;;;;;25.96;48.54;101068.28;5005945;28;20034;-74
2022/06/26 07:31:02;;;;;;;7.60;3.70;;;;;;;26.28;48.16;101075.88;5002943;28;20022;-74
2022/06/26 07:36:12;;;;;;;8.65;4.20;;;;;;;26.39;49.09;101077.72;5010672;28;20025;-73
2022/06/26 07:38:37;;;;;;;7.30;3.83;;;;;;;27.00;46.87;101078.44;5008915;28;20094;-74
2022/06/26 07:41:03;;;;;;;9.80;4.57;;;;;;;27.01;46.88;101080.97;5002779;28;20029;-74
2022/06/26 07:43:28;;;;;;;8.20;4.35;;;;;;;27.15;46.99;101098.09;5008823;28;20037;-70
2022/06/26 07:45:55;;;;;;;12.05;4.13;;;;;;;26.92;46.54;101093.63;4984731;28;20026;-71
2022/06/26 07:48:21;;;;;;;7.47;4.40;;;;;;;26.94;46.47;101087.84;4986642;28;20072;-71
2022/06/26 08:01:45;;;;;;;8.65;4.45;;;;;;;27.35;45.48;101096.59;5040786;23;20057;-75
2022/06/26 08:04:11;;;;;;;7.60;4.43;;;;;;;27.73;45.59;101099.16;5002984;28;20033;-75
2022/06/26 08:06:36;;;;;;;5.85;4.68;;;;;;;27.78;44.86;101104.78;5002755;28;20017;-75
2022/06/26 08:09:02;;;;;;;7.50;4.45;;;;;;;27.78;43.62;101107.56;5008386;28;20040;-75
2022/06/26 08:11:28;;;;;;;7.38;3.63;;;;;;;27.51;43.88;101106.72;5030629;28;20105;-75
2022/06/26 08:13:53;;;;;;;6.97;4.07;;;;;;;28.18;42.43;101103.34;5014690;28;20082;-75
2022/06/26 08:16:20;;;;;;;10.43;4.28;;;;;;;27.85;43.39;101119.28;4994912;28;20032;-75
2022/06/26 08:18:45;;;;;;;9.65;3.75;;;;;;;27.24;44.24;101120.69;5003272;28;20084;-75
2022/06/26 08:23:55;;;;;;;8.15;3.63;;;;;;;27.91;43.39;101111.81;5031362;28;20492;-73
2022/06/26 08:26:21;;;;;;;6.55;4.72;;;;;;;27.68;43.88;101118.59;5023236;28;20030;-73
2022/06/26 08:28:47;;;;;;;4.55;3.72;;;;;;;27.93;44.07;101108.75;5007486;28;20025;-75
2022/06/26 08:31:13;;;;;;;7.07;4.30;;;;;;;27.97;43.69;101115.44;5039950;28;20038;-74
2022/06/26 08:33:38;;;;;;;8.02;4.15;;;;;;;28.41;42.32;101126.31;5039097;28;20054;-75
2022/06/26 08:36:04;;;;;;;12.52;4.68;;;;;;;27.99;43.44;101118.81;5029466;28;20096;-75
2022/06/26 08:38:30;;;;;;;9.02;3.72;;;;;;;28.38;43.00;101116.56;5025651;28;20041;-73
2022/06/26 08:40:59;;;;;;;13.68;4.25;;;;;;;28.89;42.04;101117.63;5024119;28;20027;-73
2022/06/26 08:43:25;;;;;;;12.82;3.72;;;;;;;29.19;41.54;101118.81;5021611;28;20121;-73
2022/06/26 08:45:53;;;;;;;5.70;3.97;;;;;;;29.11;40.44;101117.41;5039757;28;20029;-73
2022/06/26 08:48:20;;;;;;;5.07;4.32;;;;;;;28.53;41.55;101118.59;5027423;28;20108;-73
2022/06/26 08:50:46;;;;;;;5.82;4.10;;;;;;;28.64;41.08;101121.16;5040091;28;20024;-74
2022/06/26 08:53:14;;;;;;;7.38;4.15;;;;;;;28.79;41.05;101117.56;5043223;28;20029;-73
2022/06/26 08:55:40;;;;;;;5.28;3.08;;;;;;;28.80;38.51;101130.38;5017250;28;20028;-73
2022/06/26 08:58:06;;;;;;;7.32;2.78;;;;;;;28.50;38.35;101127.50;5026440;28;20033;-73
2022/06/26 09:00:31;;;;;;;5.03;2.80;;;;;;;28.63;37.96;101118.66;5021307;28;20398;-73
2022/06/26 09:02:56;;;;;;;3.55;2.60;;;;;;;28.13;38.28;101122.81;5024597;28;20046;-74
2022/06/26 09:05:22;;;;;;;5.78;2.30;;;;;;;28.21;38.58;101121.47;5026039;28;20016;-73
2022/06/26 09:07:49;;;;;;;6.00;2.10;;;;;;;28.18;38.24;101134.00;5018382;28;20053;-74
2022/06/26 09:10:17;;;;;;;3.80;2.15;;;;;;;28.28;36.86;101116.47;5021347;28;20034;-73
2022/06/26 09:12:49;;;;;;;4.97;2.08;;;;;;;28.53;37.06;101124.16;5015583;28;20092;-74
2022/06/26 09:15:19;;;;;;;6.22;2.00;;;;;;;28.38;37.50;101128.56;5051587;28;20112;-76
2022/06/26 09:18:04;;;;;;;5.82;2.20;;;;;;;28.17;37.65;101137.88;5008316;28;20061;-74
2022/06/26 09:20:31;;;;;;;6.38;2.67;;;;;;;29.03;36.72;101133.84;5028049;28;20029;-75
2022/06/26 09:22:59;;;;;;;5.90;2.40;;;;;;;29.05;37.13;101128.81;5034031;28;20575;-75
2022/06/26 09:25:38;;;;;;;2.83;2.38;;;;;;;29.07;36.94;101129.38;5019487;28;20016;-73
2022/06/26 09:28:24;;;;;;;4.65;2.35;;;;;;;29.75;35.88;101140.38;5030500;28;20051;-75
2022/06/26 09:31:04;;;;;;;4.38;2.22;;;;;;;29.19;36.25;101138.31;5001303;28;20406;-73
2022/06/26 09:33:32;;;;;;;6.90;2.33;;;;;;;29.50;36.33;101143.94;5047501;28;20211;-74
2022/06/26 09:36:00;;;;;;;6.45;2.20;;;;;;;29.25;36.49;101137.22;5037532;28;20120;-74
2022/06/26 09:38:28;;;;;;;8.55;2.20;;;;;;;29.21;37.35;101141.66;5021750;28;20013;-75
2022/06/26 09:40:55;;;;;;;4.55;2.30;;;;;;;28.70;37.83;101166.59;5035033;28;20017;-74
2022/06/26 09:43:26;;;;;;;2.55;2.35;;;;;;;29.01;37.05;101138.84;5038206;28;20025;-74
2022/06/26 09:45:53;;;;;;;7.10;2.47;;;;;;;28.73;37.35;101159.63;5037306;28;20021;-74
2022/06/26 09:48:21;;;;;;;5.50;2.15;;;;;;;28.75;37.64;101143.47;5031059;28;20052;-74
2022/06/26 09:50:46;;;;;;;4.40;2.30;;;;;;;29.33;36.62;101155.38;5048039;28;20020;-74
2022/06/26 09:53:14;;;;;;;9.68;2.55;;;;;;;29.47;36.39;101156.50;5017767;28;20035;-75
2022/06/26 09:55:40;;;;;;;4.10;2.63;;;;;;;29.50;37.16;101157.91;5010961;28;20021;-74
2022/06/26 09:58:08;;;;;;;4.50;2.70;;;;;;;29.51;37.44;101156.78;5012285;28;20025;-74
2022/06/26 10:00:35;;;;;;;6.90;3.13;;;;;;;30.15;36.34;101159.06;5047609;28;20037;-75
2022/06/26 10:08:34;;;;;;;9.25;3.22;;;;;;;29.03;39.54;101157.00;5049630;28;20082;-74
2022/06/26 10:11:01;;;;;;;13.68;3.50;;;;;;;29.25;38.79;101158.69;5030045;28;20021;-74
2022/06/26 10:13:28;;;;;;;3.00;2.70;;;;;;;29.58;38.15;101168.53;5018409;28;20028;-73
2022/06/26 10:16:25;;;;;;;3.55;2.53;;;;;;;29.46;38.50;101161.22;5024972;28;20017;-74
2022/06/26 10:19:10;;;;;;;3.70;3.08;;;;;;;29.31;38.48;101164.00;5034195;28;20029;-75
2022/06/26 10:21:38;;;;;;;4.35;2.60;;;;;;;29.24;38.85;101182.13;5023413;28;20041;-74
2022/06/26 10:24:05;;;;;;;13.73;3.33;;;;;;;28.98;39.30;101176.47;5034846;28;20029;-75
2022/06/26 10:26:31;;;;;;;4.40;2.70;;;;;;;29.44;38.25;101185.78;5029436;28;20100;-74
2022/06/26 10:28:58;;;;;;;6.15;3.08;;;;;;;29.40;38.20;101184.66;5030403;28;20114;-75
2022/06/26 10:31:24;;;;;;;4.88;2.67;;;;;;;29.78;37.45;101185.28;5021866;28;20048;-74
2022/06/26 10:33:50;;;;;;;11.60;3.00;;;;;;;29.33;37.92;101194.41;5059518;28;20439;-75
2022/06/26 10:36:22;;;;;;;4.82;2.78;;;;;;;29.00;38.34;101195.72;5022720;28;20024;-74
2022/06/26 10:38:48;;;;;;;3.95;2.40;;;;;;;29.29;38.16;101194.16;5032568;28;20113;-74
2022/06/26 10:44:17;;;;;;;4.68;2.65;;;;;;;29.39;37.80;101183.00;5041795;28;20017;-73
2022/06/26 10:46:49;;;;;;;5.72;3.05;;;;;;;28.48;38.77;101204.91;5043353;28;20025;-75
2022/06/26 10:49:15;;;;;;;3.20;2.35;;;;;;;28.62;38.92;101208.88;5036948;28;20025;-76
2022/06/26 10:51:42;;;;;;;6.07;1.98;;;;;;;28.27;37.58;101210.34;5040585;28;20009;-73
2022/06/26 10:54:27;;;;;;;3.22;2.03;;;;;;;28.78;37.19;101205.09;5025359;28;20120;-73
2022/06/26 10:57:01;;;;;;;4.57;2.30;;;;;;;29.21;35.55;101203.03;5017058;28;20033;-75
2022/06/26 10:59:28;;;;;;;5.47;2.20;;;;;;;29.22;36.77;101210.31;5025469;28;20032;-73
2022/06/26 11:01:53;;;;;;;7.97;2.70;;;;;;;28.24;38.44;101227.59;5041926;28;20020;-76
2022/06/26 11:04:18;;;;;;;4.03;2.25;;;;;;;28.50;38.00;101199.94;5043129;28;20105;-76
2022/06/26 11:06:44;;;;;;;3.22;2.25;;;;;;;29.72;36.32;101208.72;5020576;28;20029;-73
2022/06/26 11:09:09;;;;;;;12.15;2.58;;;;;;;29.26;37.50;101205.84;5041918;28;20017;-73
2022/06/26 11:11:35;;;;;;;4.50;2.60;;;;;;;29.41;37.97;101202.25;5025884;28;20026;-73
2022/06/26 11:14:06;;;;;;;7.53;3.05;;;;;;;29.26;38.87;101203.06;5023244;28;20021;-73
2022/06/26 11:16:41;;;;;;;10.45;4.35;;;;;;;28.93;39.39;101210.75;5035611;28;20421;-75
2022/06/26 11:19:22;;;;;;;4.20;2.80;;;;;;;28.92;39.04;101209.06;5031439;28;20021;-76
2022/06/26 11:21:47;;;;;;;7.47;3.38;;;;;;;28.89;39.31;101206.81;5044093;28;20029;-74
2022/06/26 11:24:12;;;;;;;4.82;2.90;;;;;;;28.74;40.44;101203.94;5026626;28;20029;-73
2022/06/26 11:26:38;;;;;;;10.98;3.92;;;;;;;28.44;40.94;101214.94;5020022;28;20036;-73
2022/06/26 11:29:04;;;;;;;11.05;3.95;;;;;;;28.09;41.53;101213.53;5021163;28;20110;-74
2022/06/26 11:31:31;;;;;;;11.27;3.80;;;;;;;28.50;41.19;101208.28;5034702;28;20025;-73
2022/06/26 11:34:15;;;;;;;5.57;3.72;;;;;;;28.60;41.92;101208.34;5023184;28;20098;-73
2022/06/26 11:36:58;;;;;;;12.27;5.45;;;;;;;28.51;42.70;101215.53;5029178;28;20021;-73
2022/06/26 11:39:24;;;;;;;5.53;4.30;;;;;;;27.70;45.02;101222.09;5034465;28;20024;-75
2022/06/26 11:41:51;;;;;;;7.88;5.03;;;;;;;27.91;44.64;101216.72;5021143;28;20021;-73
2022/06/26 11:44:16;;;;;;;9.18;4.22;;;;;;;28.04;44.47;101210.75;5024897;28;20024;-74